Niederfeulen, Luxembourg
Current Conditions -  °F | °C
As of 10:20 AM on Monday 24 Nov 2014 (Local Time) from ELLX Reporting Station
Broken Clouds Broken Clouds  
Wind Chill: 44°   Ceiling: 2500
Heat Index: 48°   Visibility: 6mi
Dew Point: 43°   Wind: 10mph
Humidity: 82%   Direction: 20°NNE
Pressure: 30.21"   Gusts: NA
Location:  49.86°N, 6.05°E
Report Text: ELLX 240920Z 02009KT 9999 FEW012 BKN025 09/06 Q1023 NOSIG
Loading
Personal Weather Stations






























Interactive Weather Map New forecast layout! Learn more

10-Day Weather Forecast

Advertisements
Track Severe Weather on mobile